Time;durP1;ratioP1;P1;durP2;ratioP2;P2;SDS_P1;SDS_P2;PMS_P1;PMS_P2;Temp;Humidity;BMP_temperature;BMP_pressure;BME280_temperature;BME280_humidity;BME280_pressure;Samples;Min_cycle;Max_cycle;Signal;HPM_P1;HPM_P2
2023/08/23 00:01:18;;;;;;;;;;;25.20;68.80;;;24.58;76.44;96200.53;4968763;28;20298;-61
2023/08/23 00:03:44;;;;;;;;;;;25.10;68.60;;;24.55;76.15;96195.69;4973614;28;19914;-61
2023/08/23 00:06:09;;;;;;;;;;;25.10;68.80;;;24.52;76.84;96196.25;4954711;28;19914;-61
2023/08/23 00:08:35;;;;;;;;;;;25.10;68.90;;;24.50;76.82;96196.53;4969682;28;19917;-61
2023/08/23 00:11:01;;;;;;;;;;;25.10;69.10;;;24.49;76.50;96192.22;4955083;28;19914;-61
2023/08/23 00:13:26;;;;;;;;;;;25.10;68.90;;;24.45;76.67;96195.75;4968019;28;20362;-61
2023/08/23 00:15:52;;;;;;;;;;;25.00;69.00;;;24.43;77.26;96186.03;4958655;28;19914;-61
2023/08/23 00:18:18;;;;;;;;;;;25.10;69.10;;;24.40;77.21;96194.66;4970517;28;19968;-61
2023/08/23 00:20:43;;;;;;;;;;;25.00;69.00;;;24.38;77.16;96191.44;4970967;28;19914;-61
2023/08/23 00:23:09;;;;;;;;;;;25.10;69.00;;;24.34;77.86;96205.72;4975791;28;19914;-61
2023/08/23 00:25:34;;;;;;;;;;;25.00;69.50;;;24.30;78.05;96210.84;4968742;28;20399;-61
2023/08/23 00:28:00;;;;;;;;;;;24.90;69.60;;;24.27;78.43;96216.72;4981557;28;19957;-61
2023/08/23 00:30:26;;;;;;;;;;;24.90;69.80;;;24.25;78.63;96208.13;4938455;28;19914;-61
2023/08/23 00:32:51;;;;;;;;;;;24.90;70.00;;;24.22;79.40;96207.88;4960660;28;19914;-61
2023/08/23 00:35:17;;;;;;;;;;;24.80;70.30;;;24.22;79.55;96207.88;4938194;28;19918;-61
2023/08/23 00:37:43;;;;;;;;;;;24.90;70.40;;;24.20;79.71;96197.38;4970689;28;19914;-61
2023/08/23 00:40:12;;;;;;;;;;;24.90;70.40;;;24.19;80.25;96198.47;4953079;28;20401;-60
2023/08/23 00:42:37;;;;;;;;;;;24.80;70.60;;;24.18;80.15;96199.53;4937349;28;19967;-61
2023/08/23 00:45:03;;;;;;;;;;;24.90;70.80;;;24.20;81.77;96218.88;4970819;28;19914;-61
2023/08/23 00:47:29;;;;;;;;;;;24.90;70.60;;;24.16;80.38;96209.75;4948988;28;19971;-60
2023/08/23 00:49:57;;;;;;;;;;;24.90;70.60;;;24.17;81.13;96216.75;4975309;28;20275;-61
2023/08/23 00:52:23;;;;;;;;;;;24.90;70.60;;;24.16;82.61;96223.19;4968910;28;20045;-60
2023/08/23 00:54:49;;;;;;;;;;;24.90;70.80;;;24.14;81.08;96226.16;4951993;28;19924;-62
2023/08/23 00:57:15;;;;;;;;;;;24.80;71.20;;;24.11;83.43;96207.88;4937406;28;19910;-61
2023/08/23 00:59:40;;;;;;;;;;;24.80;71.90;;;24.09;83.32;96209.25;4967393;28;19910;-61
2023/08/23 01:02:06;;;;;;;;;;;24.80;72.00;;;24.07;82.51;96208.72;4953617;28;20313;-62
2023/08/23 01:04:32;;;;;;;;;;;24.80;71.60;;;24.03;82.49;96207.66;4939882;28;19988;-62
2023/08/23 01:07:07;;;;;;;;;;;24.70;71.80;;;24.02;82.91;96208.72;4952470;28;19924;-61
2023/08/23 01:09:59;;;;;;;;;;;24.70;72.00;;;23.97;83.43;96200.66;4969097;28;19925;-60
2023/08/23 01:12:55;;;;;;;;;;;24.70;72.00;;;23.97;84.14;96204.13;4952691;28;19960;-61
2023/08/23 01:15:21;;;;;;;;;;;24.70;72.20;;;23.97;84.44;96216.78;4950858;28;19981;-61
2023/08/23 01:17:46;;;;;;;;;;;24.70;72.50;;;23.96;85.12;96210.59;4967860;28;20663;-60
2023/08/23 01:20:12;;;;;;;;;;;24.70;72.80;;;23.90;85.10;96208.19;4953503;28;19913;-61
2023/08/23 01:22:39;;;;;;;;;;;24.60;72.90;;;23.86;85.27;96193.69;4953189;28;19965;-61
2023/08/23 01:25:05;;;;;;;;;;;24.60;73.00;;;23.87;85.33;96212.22;4950281;28;19914;-61
2023/08/23 01:27:32;;;;;;;;;;;24.60;72.90;;;23.88;86.03;96223.78;4969209;28;19925;-61
2023/08/23 01:29:58;;;;;;;;;;;24.60;73.60;;;23.86;86.33;96225.94;4952376;28;20427;-61
2023/08/23 01:32:40;;;;;;;;;;;24.60;73.70;;;23.81;87.23;96219.50;4951034;28;20013;-61
2023/08/23 01:35:19;;;;;;;;;;;24.60;73.90;;;23.79;87.19;96221.66;4969456;28;19914;-61
2023/08/23 01:37:47;;;;;;;;;;;24.50;73.60;;;23.80;86.03;96228.63;4969129;28;20005;-61
2023/08/23 01:40:12;;;;;;;;;;;24.60;73.50;;;23.82;87.76;96225.69;4953322;28;19910;-60
2023/08/23 01:42:38;;;;;;;;;;;24.60;73.90;;;23.83;87.96;96233.47;4952769;28;19914;-60
2023/08/23 01:45:05;;;;;;;;;;;24.60;73.50;;;23.86;87.36;96220.56;4937515;28;20374;-61
2023/08/23 01:47:30;;;;;;;;;;;24.60;73.30;;;23.81;87.10;96214.13;4951311;28;20012;-61
2023/08/23 01:49:56;;;;;;;;;;;24.60;73.60;;;23.81;87.84;96227.56;4965763;28;19922;-61
2023/08/23 01:52:22;;;;;;;;;;;24.60;73.80;;;23.80;87.20;96230.50;4952374;28;20516;-61
2023/08/23 01:54:47;;;;;;;;;;;24.60;73.80;;;23.79;87.67;96231.59;4967141;28;20481;-61
2023/08/23 01:57:13;;;;;;;;;;;24.60;73.60;;;23.76;88.41;96232.94;4941049;28;19910;-61
2023/08/23 01:59:39;;;;;;;;;;;24.50;73.90;;;23.74;87.66;96221.63;4968408;28;19920;-60
2023/08/23 02:02:04;;;;;;;;;;;24.50;73.70;;;23.70;87.47;96225.94;4968443;28;19921;-61
2023/08/23 02:04:30;;;;;;;;;;;24.50;73.80;;;23.67;87.86;96223.78;4952043;28;19910;-61
2023/08/23 02:06:56;;;;;;;;;;;24.40;73.80;;;23.63;88.30;96221.91;4952619;28;19910;-61
2023/08/23 02:09:21;;;;;;;;;;;24.40;74.10;;;23.52;88.48;96215.69;4951640;28;20398;-60
2023/08/23 02:11:47;;;;;;;;;;;24.30;74.30;;;23.49;89.13;96210.84;4964920;28;19917;-61
2023/08/23 02:14:13;;;;;;;;;;;24.20;74.40;;;23.39;89.68;96217.03;4958617;28;20361;-61
2023/08/23 02:16:38;;;;;;;;;;;24.10;74.50;;;23.37;88.96;96215.69;4968022;28;19917;-61
2023/08/23 02:19:04;;;;;;;;;;;24.10;74.60;;;23.35;89.75;96215.16;4973134;28;19914;-61
2023/08/23 02:21:30;;;;;;;;;;;24.10;74.80;;;23.32;89.48;96221.06;4966641;28;19914;-62
2023/08/23 02:23:55;;;;;;;;;;;24.00;74.90;;;23.29;89.52;96226.94;4951172;28;19925;-61
2023/08/23 02:26:21;;;;;;;;;;;24.10;74.80;;;23.28;89.29;96225.31;4963435;28;19973;-61
2023/08/23 02:28:47;;;;;;;;;;;24.10;74.70;;;23.27;89.72;96218.34;4950973;28;19918;-61
2023/08/23 02:31:12;;;;;;;;;;;24.10;74.80;;;23.27;89.75;96218.34;4958941;28;19914;-61
2023/08/23 02:33:38;;;;;;;;;;;24.10;74.70;;;23.27;89.69;96223.72;4951319;28;19922;-62
2023/08/23 02:36:04;;;;;;;;;;;24.00;74.90;;;23.25;89.79;96217.81;4974979;28;19917;-62
2023/08/23 02:38:29;;;;;;;;;;;24.00;74.60;;;23.25;89.38;96231.22;4950286;28;20008;-61
2023/08/23 02:40:55;;;;;;;;;;;23.90;74.20;;;23.23;88.19;96235.00;4969431;28;19914;-61
2023/08/23 02:43:21;;;;;;;;;;;24.10;73.70;;;23.25;88.23;96225.88;4951747;28;19918;-61
2023/08/23 02:45:47;;;;;;;;;;;24.10;73.40;;;23.27;88.02;96215.66;4951796;28;20451;-61
2023/08/23 02:48:13;;;;;;;;;;;24.10;73.30;;;23.25;88.20;96209.75;4969602;28;19914;-62
2023/08/23 02:50:39;;;;;;;;;;;24.10;73.90;;;23.25;88.56;96209.75;4944389;28;20567;-61
2023/08/23 02:53:04;;;;;;;;;;;24.10;73.70;;;23.27;87.58;96215.66;4962354;28;20370;-61
2023/08/23 02:55:30;;;;;;;;;;;24.10;73.40;;;23.29;87.87;96226.94;4951348;28;20518;-61
2023/08/23 02:57:56;;;;;;;;;;;24.10;73.40;;;23.28;88.03;96209.22;4954245;28;19921;-61
2023/08/23 03:00:21;;;;;;;;;;;24.10;73.70;;;23.28;89.03;96211.91;4966465;28;19918;-61
2023/08/23 03:02:47;;;;;;;;;;;24.10;73.70;;;23.26;87.44;96214.06;4967393;28;19921;-61
2023/08/23 03:05:13;;;;;;;;;;;24.10;73.50;;;23.24;87.62;96222.38;4939241;28;19917;-61
2023/08/23 03:07:38;;;;;;;;;;;24.00;73.50;;;23.19;87.66;96220.50;4967405;28;20340;-61
2023/08/23 03:10:04;;;;;;;;;;;24.00;73.40;;;23.19;89.11;96222.38;4951959;28;19918;-62
2023/08/23 03:12:32;;;;;;;;;;;24.00;73.60;;;23.18;89.48;96218.88;4955918;28;19914;-62
2023/08/23 03:14:58;;;;;;;;;;;24.00;73.90;;;23.16;89.33;96221.03;4951958;28;19910;-62
2023/08/23 03:17:23;;;;;;;;;;;24.00;74.00;;;23.15;89.66;96227.47;4971214;28;19917;-61
2023/08/23 03:19:50;;;;;;;;;;;24.00;73.80;;;23.13;89.13;96224.25;4967104;28;19926;-61
2023/08/23 03:22:16;;;;;;;;;;;24.00;73.80;;;23.09;88.79;96220.47;4966259;28;19921;-61
2023/08/23 03:24:42;;;;;;;;;;;23.90;73.90;;;23.08;89.68;96229.56;4967205;28;19910;-62
2023/08/23 03:27:07;;;;;;;;;;;23.90;74.00;;;23.05;89.39;96226.63;4953791;28;20045;-63
2023/08/23 03:29:33;;;;;;;;;;;23.80;74.30;;;23.02;90.15;96227.97;4972074;28;19940;-61
2023/08/23 03:31:59;;;;;;;;;;;23.80;74.60;;;22.98;91.23;96221.50;4950237;28;19932;-61
2023/08/23 03:34:24;;;;;;;;;;;23.80;75.00;;;22.98;91.00;96231.44;4959034;28;20667;-61
2023/08/23 03:36:50;;;;;;;;;;;23.80;75.20;;;22.98;92.09;96237.63;4955156;28;19916;-61
2023/08/23 03:39:15;;;;;;;;;;;23.80;75.40;;;22.97;93.27;96229.84;4971473;28;19921;-62
2023/08/23 03:41:41;;;;;;;;;;;23.80;75.60;;;22.95;93.59;96242.69;4972083;28;20330;-62
2023/08/23 03:44:07;;;;;;;;;;;23.80;76.00;;;22.95;94.23;96254.25;4956266;28;19914;-62
2023/08/23 03:46:32;;;;;;;;;;;23.80;76.30;;;22.95;94.30;96243.50;4936066;28;19961;-62
2023/08/23 03:48:58;;;;;;;;;;;23.80;76.30;;;22.94;94.92;96241.91;4970983;28;20396;-61
2023/08/23 03:51:26;;;;;;;;;;;23.80;76.50;;;22.93;95.40;96234.91;4950179;28;19976;-62
2023/08/23 03:53:54;;;;;;;;;;;23.80;76.40;;;22.95;95.61;96232.78;4954815;28;20293;-62
2023/08/23 03:56:20;;;;;;;;;;;23.80;76.30;;;22.94;94.74;96241.91;4957629;28;19914;-62
2023/08/23 03:58:46;;;;;;;;;;;23.90;76.20;;;22.94;94.36;96233.84;4956836;28;19965;-62
2023/08/23 04:01:11;;;;;;;;;;;23.80;76.10;;;22.93;94.99;96251.00;4954402;28;19918;-61
2023/08/23 04:03:37;;;;;;;;;;;23.80;76.30;;;22.90;94.97;96240.81;4971718;28;20484;-62
2023/08/23 04:06:03;;;;;;;;;;;23.80;76.30;;;22.86;95.41;96245.91;4954788;28;19918;-61
2023/08/23 04:08:28;;;;;;;;;;;23.70;76.30;;;22.84;93.83;96241.84;4970558;28;20372;-63
2023/08/23 04:10:54;;;;;;;;;;;23.60;76.10;;;22.83;94.62;96242.91;4970603;28;19910;-63
2023/08/23 04:13:20;;;;;;;;;;;23.70;76.10;;;22.81;95.45;96248.53;4961372;28;20391;-70
2023/08/23 04:15:46;;;;;;;;;;;23.70;76.20;;;22.80;94.42;96244.22;4972530;28;19920;-62
2023/08/23 04:18:11;;;;;;;;;;;23.70;76.20;;;22.81;94.52;96243.19;4952187;28;19914;-66
2023/08/23 04:20:37;;;;;;;;;;;23.70;75.90;;;22.82;94.23;96249.34;4969237;28;19964;-61
2023/08/23 04:23:03;;;;;;;;;;;23.70;76.00;;;22.82;94.04;96242.09;4952851;28;20403;-62
2023/08/23 04:25:29;;;;;;;;;;;23.70;75.60;;;22.81;93.57;96236.97;4973767;28;20644;-61
2023/08/23 04:27:55;;;;;;;;;;;23.70;75.50;;;22.79;93.86;96236.44;4952998;28;19964;-62
2023/08/23 04:30:20;;;;;;;;;;;23.70;75.10;;;22.78;93.07;96249.03;4954521;28;20285;-62
2023/08/23 04:32:46;;;;;;;;;;;23.70;75.10;;;22.80;92.63;96246.91;4964633;28;19973;-62
2023/08/23 04:35:12;;;;;;;;;;;23.70;74.60;;;22.81;92.22;96253.06;4952689;28;19914;-61
2023/08/23 04:37:37;;;;;;;;;;;23.70;74.80;;;22.80;92.95;96254.94;4947492;28;19918;-62
2023/08/23 04:40:05;;;;;;;;;;;23.70;74.80;;;22.80;93.63;96251.47;4951502;28;19910;-62
2023/08/23 04:42:32;;;;;;;;;;;23.70;75.10;;;22.78;93.32;96250.91;4944095;28;19921;-61
2023/08/23 04:45:00;;;;;;;;;;;23.60;75.10;;;22.76;93.84;96248.50;4953554;28;19918;-63
2023/08/23 04:47:30;;;;;;;;;;;23.60;75.40;;;22.74;93.40;96252.50;4973627;28;20543;-62
2023/08/23 04:49:56;;;;;;;;;;;23.60;75.50;;;22.68;93.75;96253.56;4968063;28;19926;-62
2023/08/23 04:52:21;;;;;;;;;;;23.50;75.40;;;22.67;94.67;96251.97;4975793;28;20025;-62
2023/08/23 04:54:47;;;;;;;;;;;23.60;75.50;;;22.60;94.74;96255.66;4969387;28;19914;-62
2023/08/23 04:57:12;;;;;;;;;;;23.50;75.70;;;22.59;95.02;96251.38;4940316;28;19936;-61
2023/08/23 04:59:39;;;;;;;;;;;23.50;75.90;;;22.59;95.19;96250.56;4940064;28;19920;-62
2023/08/23 05:02:04;;;;;;;;;;;23.50;75.90;;;22.57;94.92;96255.38;4968003;28;19976;-62
2023/08/23 05:04:30;;;;;;;;;;;23.50;76.00;;;22.57;94.81;96264.22;4964699;28;20420;-62
2023/08/23 05:06:55;;;;;;;;;;;23.50;76.00;;;22.54;97.76;96267.44;4953118;28;19921;-62
2023/08/23 05:09:21;;;;;;;;;;;23.50;76.20;;;22.50;97.43;96258.31;4961252;28;19915;-64
2023/08/23 05:11:47;;;;;;;;;;;23.50;76.60;;;22.49;97.88;96261.25;4953087;28;19933;-64
2023/08/23 05:14:12;;;;;;;;;;;23.40;76.90;;;22.47;98.57;96272.22;4950783;28;19918;-63
2023/08/23 05:16:38;;;;;;;;;;;23.40;77.30;;;22.45;98.43;96266.31;4969808;28;19922;-69
2023/08/23 05:19:04;;;;;;;;;;;23.40;77.50;;;22.44;99.01;96263.91;4962986;28;19914;-71
2023/08/23 05:21:29;;;;;;;;;;;23.30;77.80;;;22.42;98.73;96261.50;4953725;28;19916;-69
2023/08/23 05:23:55;;;;;;;;;;;23.40;77.70;;;22.43;99.62;96263.09;4952861;28;19941;-69
2023/08/23 05:26:21;;;;;;;;;;;23.30;77.90;;;22.41;99.52;96269.78;4966367;28;20288;-71
2023/08/23 05:28:47;;;;;;;;;;;23.30;77.90;;;22.40;99.95;96263.59;4945189;28;19915;-68
2023/08/23 05:31:14;;;;;;;;;;;23.30;77.90;;;22.41;99.76;96261.75;4967426;28;20382;-66
2023/08/23 05:33:42;;;;;;;;;;;23.40;77.80;;;22.42;99.89;96261.50;4935283;28;19968;-66
2023/08/23 05:36:07;;;;;;;;;;;23.40;77.50;;;22.43;100.00;96262.28;4968788;28;19922;-65
2023/08/23 05:38:33;;;;;;;;;;;23.40;77.60;;;22.44;100.00;96264.72;4951593;28;19918;-67
2023/08/23 05:40:59;;;;;;;;;;;23.50;77.30;;;22.49;100.00;96259.38;4938556;28;20432;-66
2023/08/23 05:43:24;;;;;;;;;;;23.60;77.20;;;22.54;98.74;96264.75;4968051;28;19921;-65
2023/08/23 05:45:54;;;;;;;;;;;23.60;76.60;;;22.60;98.56;96263.72;4967158;28;19961;-66
2023/08/23 05:48:20;;;;;;;;;;;23.70;76.50;;;22.66;97.50;96269.13;4950869;28;19924;-66
2023/08/23 05:50:46;;;;;;;;;;;23.70;76.20;;;22.71;98.77;96263.78;4949823;28;19975;-65
2023/08/23 05:53:18;;;;;;;;;;;23.90;76.00;;;22.79;98.63;96268.63;4949480;28;20354;-65
2023/08/23 05:55:50;;;;;;;;;;;24.00;75.70;;;22.83;97.90;96259.00;4966044;28;19922;-65
2023/08/23 05:58:19;;;;;;;;;;;24.10;75.30;;;22.88;96.17;96254.50;4953187;28;19914;-65
2023/08/23 06:00:45;;;;;;;;;;;24.10;74.30;;;22.93;94.72;96237.59;4969413;28;19928;-65
2023/08/23 06:03:14;;;;;;;;;;;24.20;74.00;;;23.01;95.00;96241.63;4953160;28;19913;-65
2023/08/23 06:05:41;;;;;;;;;;;24.30;73.80;;;23.06;95.31;96239.78;4954230;28;19918;-65
2023/08/23 06:08:06;;;;;;;;;;;24.40;73.70;;;23.15;94.71;96248.13;4949704;28;19976;-66
2023/08/23 06:10:32;;;;;;;;;;;24.50;73.60;;;23.23;95.01;96255.66;4967852;28;19925;-66
2023/08/23 06:12:58;;;;;;;;;;;24.60;73.50;;;23.30;95.36;96255.38;4948001;28;19917;-65
2023/08/23 06:15:23;;;;;;;;;;;24.70;73.20;;;23.37;94.25;96261.31;4969277;28;20171;-67
2023/08/23 06:17:49;;;;;;;;;;;24.80;72.70;;;23.46;94.00;96255.16;4971440;23;19930;-65
2023/08/23 06:20:16;;;;;;;;;;;24.90;72.30;;;23.54;93.49;96259.22;4940648;28;19922;-68
2023/08/23 06:22:43;;;;;;;;;;;25.10;71.80;;;23.63;91.07;96254.94;4942780;28;19974;-67
2023/08/23 06:25:09;;;;;;;;;;;25.10;70.70;;;23.75;90.28;96262.72;4941283;28;19937;-68
2023/08/23 06:27:34;;;;;;;;;;;25.30;70.10;;;23.83;91.16;96254.94;4960134;28;20405;-64
2023/08/23 06:30:02;;;;;;;;;;;25.40;70.30;;;23.92;89.14;96255.22;4944355;28;19968;-64
2023/08/23 06:32:27;;;;;;;;;;;25.40;69.70;;;24.01;89.19;96261.66;4947571;28;19926;-65
2023/08/23 06:34:53;;;;;;;;;;;25.50;69.90;;;24.09;89.65;96268.38;4932415;28;19969;-65
2023/08/23 06:37:19;;;;;;;;;;;25.60;70.00;;;24.14;87.53;96260.28;4948671;28;19921;-65
2023/08/23 06:39:45;;;;;;;;;;;25.60;68.90;;;24.20;85.18;96253.03;4949037;28;19972;-65
2023/08/23 06:42:10;;;;;;;;;;;25.70;67.40;;;24.27;85.47;96254.38;4931940;28;19929;-64
2023/08/23 06:44:36;;;;;;;;;;;25.70;67.50;;;24.33;83.68;96258.69;4932225;29;19918;-65
2023/08/23 06:47:01;;;;;;;;;;;25.80;66.50;;;24.39;80.25;96249.53;4948201;28;19914;-65
2023/08/23 06:49:27;;;;;;;;;;;25.80;64.30;;;24.48;80.97;96255.16;4931999;29;19930;-65
2023/08/23 06:51:53;;;;;;;;;;;26.00;64.60;;;24.57;81.11;96255.41;4928724;28;20440;-65
2023/08/23 06:54:18;;;;;;;;;;;26.10;65.00;;;24.65;81.16;96257.50;4930377;28;19928;-66
2023/08/23 06:56:45;;;;;;;;;;;26.20;64.70;;;24.76;80.00;96256.41;4930509;28;19977;-64
2023/08/23 06:59:11;;;;;;;;;;;26.40;63.70;;;24.87;78.74;96257.97;4931801;29;19953;-65
2023/08/23 07:01:37;;;;;;;;;;;26.50;62.80;;;25.02;78.68;96262.50;4947154;28;19922;-64
2023/08/23 07:04:02;;;;;;;;;;;26.70;62.50;;;25.13;79.02;96266.78;4947379;28;19919;-64
2023/08/23 07:06:29;;;;;;;;;;;26.80;62.70;;;25.22;78.37;96269.69;4950040;28;19922;-66
2023/08/23 07:08:55;;;;;;;;;;;26.80;62.50;;;25.33;78.62;96271.22;4947741;28;19911;-64
2023/08/23 07:11:41;;;;;;;;;;;27.10;62.40;;;25.49;78.79;96267.34;4946590;28;19914;-64
2023/08/23 07:14:08;;;;;;;;;;;27.30;62.20;;;25.65;74.86;96266.19;4919001;28;19919;-64
2023/08/23 07:16:34;;;;;;;;;;;27.50;59.60;;;25.76;75.94;96274.22;4930930;29;19985;-64
2023/08/23 07:19:02;;;;;;;;;;;27.50;60.20;;;25.86;75.96;96279.53;4947799;28;19918;-67
2023/08/23 07:21:29;;;;;;;;;;;27.50;60.40;;;25.94;75.80;96278.91;4947710;28;20001;-65
2023/08/23 07:23:55;;;;;;;;;;;27.60;60.40;;;25.99;74.42;96276.19;4949265;28;20309;-64
2023/08/23 07:26:20;;;;;;;;;;;27.60;59.90;;;26.06;75.52;96284.75;4931665;29;19915;-65
2023/08/23 07:28:46;;;;;;;;;;;27.60;60.20;;;26.12;74.64;96280.94;4949008;28;21554;-64
2023/08/23 07:31:12;;;;;;;;;;;27.70;59.90;;;26.17;74.10;96280.88;4945519;28;20451;-64
2023/08/23 07:33:37;;;;;;;;;;;27.70;59.30;;;26.25;74.55;96287.53;4943363;28;19937;-64
2023/08/23 07:36:03;;;;;;;;;;;27.80;59.50;;;26.31;73.06;96286.41;4945540;28;20009;-65
2023/08/23 07:38:32;;;;;;;;;;;27.90;58.80;;;26.35;73.81;96290.19;4945528;28;19954;-69
2023/08/23 07:40:58;;;;;;;;;;;27.80;59.50;;;26.40;74.83;96294.72;4945197;28;19922;-68
2023/08/23 07:43:24;;;;;;;;;;;28.00;60.00;;;26.46;74.27;96290.88;4933152;28;19958;-65
2023/08/23 07:45:57;;;;;;;;;;;28.00;59.60;;;26.47;73.30;96284.38;4957946;28;19921;-65
2023/08/23 07:48:23;;;;;;;;;;;28.00;58.90;;;26.50;72.08;96286.53;4946638;28;21235;-65
2023/08/23 07:50:49;;;;;;;;;;;28.10;58.30;;;26.56;71.87;96282.69;4953954;28;20293;-65
2023/08/23 07:53:15;;;;;;;;;;;28.10;58.10;;;26.63;71.95;96272.34;4930420;29;19918;-65
2023/08/23 07:55:41;;;;;;;;;;;28.50;57.50;;;26.83;72.50;96264.03;4953998;28;19914;-64
2023/08/23 07:58:07;;;;;;;;;;;29.00;57.30;;;27.08;72.03;96271.03;4947026;28;19919;-66
2023/08/23 08:00:32;;;;;;;;;;;29.40;55.90;;;27.35;67.90;96259.59;4948653;28;19910;-67
2023/08/23 08:02:58;;;;;;;;;;;29.70;52.90;;;27.62;67.36;96255.44;4934383;28;19940;-68
2023/08/23 08:05:24;;;;;;;;;;;30.00;52.70;;;27.89;67.03;96261.00;4931555;29;19918;-69
2023/08/23 08:07:49;;;;;;;;;;;30.30;51.90;;;28.14;68.08;96267.06;4912195;29;20603;-67
2023/08/23 08:10:15;;;;;;;;;;;30.60;52.60;;;28.38;68.09;96267.75;4964139;28;19969;-67
2023/08/23 08:12:41;;;;;;;;;;;30.90;52.60;;;28.66;68.02;96276.69;4948192;28;19922;-68
2023/08/23 08:15:09;;;;;;;;;;;31.20;52.50;;;28.92;65.37;96266.19;4952126;28;20373;-68
2023/08/23 08:17:34;;;;;;;;;;;31.50;50.00;;;29.19;65.70;96266.16;4933066;29;20017;-68
2023/08/23 08:20:05;;;;;;;;;;;31.80;49.60;;;29.38;62.77;96252.47;4950730;28;19914;-67
2023/08/23 08:22:31;;;;;;;;;;;31.80;47.90;;;29.48;61.67;96256.91;4949398;28;20144;-66
2023/08/23 08:24:57;;;;;;;;;;;31.70;47.70;;;29.57;60.90;96255.88;4932022;28;20481;-68
2023/08/23 08:27:23;;;;;;;;;;;31.70;47.50;;;29.65;61.94;96259.78;4936017;28;19961;-70
2023/08/23 08:29:49;;;;;;;;;;;31.70;48.40;;;29.72;62.69;96273.69;4955302;28;20084;-70
2023/08/23 08:32:14;;;;;;;;;;;31.70;49.10;;;29.77;61.80;96265.44;4951616;28;19919;-69
2023/08/23 08:34:40;;;;;;;;;;;31.80;48.40;;;29.87;62.67;96267.91;4956802;28;19925;-68
2023/08/23 08:37:06;;;;;;;;;;;32.10;48.80;;;30.06;62.20;96266.94;4947463;28;19926;-66
2023/08/23 08:39:32;;;;;;;;;;;32.50;47.90;;;30.25;62.17;96259.41;4933541;29;19918;-67
2023/08/23 08:41:59;;;;;;;;;;;32.80;47.40;;;30.49;59.93;96254.41;4936547;28;19929;-66
2023/08/23 08:44:25;;;;;;;;;;;33.00;46.10;;;30.73;60.31;96261.41;4933576;29;19918;-67
2023/08/23 08:46:51;;;;;;;;;;;33.60;45.90;;;31.01;60.58;96249.22;4949077;28;20297;-67
2023/08/23 08:49:17;;;;;;;;;;;33.90;45.80;;;31.26;59.57;96244.16;4950485;28;19954;-67
2023/08/23 08:51:45;;;;;;;;;;;34.20;45.10;;;31.47;57.33;96234.28;4947563;28;20406;-67
2023/08/23 08:54:11;;;;;;;;;;;34.40;44.00;;;31.72;56.35;96226.47;4930568;28;20263;-67
2023/08/23 08:56:36;;;;;;;;;;;34.60;42.10;;;31.91;56.13;96226.88;4931913;29;19925;-67
2023/08/23 08:59:02;;;;;;;;;;;34.80;41.80;;;32.19;55.08;96221.91;4947995;28;19929;-67
2023/08/23 09:01:31;;;;;;;;;;;35.10;41.50;;;32.42;54.99;96219.78;4929894;29;19918;-67
2023/08/23 09:03:57;;;;;;;;;;;35.40;41.50;;;32.61;53.58;96203.84;4947410;28;19997;-68
2023/08/23 09:06:23;;;;;;;;;;;35.50;39.80;;;32.82;53.17;96203.91;4948444;28;19918;-67
2023/08/23 09:08:48;;;;;;;;;;;35.70;40.10;;;33.11;54.63;96219.44;4932424;29;20413;-68
2023/08/23 09:11:14;;;;;;;;;;;36.10;40.90;;;33.34;52.40;96207.13;4933559;28;19921;-66
2023/08/23 09:13:40;;;;;;;;;;;36.20;39.50;;;33.54;53.05;96219.16;4936036;29;20278;-66
2023/08/23 09:16:05;;;;;;;;;;;36.50;39.60;;;33.69;50.99;96206.81;4948386;28;19914;-66
2023/08/23 09:18:32;;;;;;;;;;;36.50;38.40;;;33.86;51.71;96206.69;4947333;28;19934;-66
2023/08/23 09:20:58;;;;;;;;;;;36.80;38.60;;;34.07;51.30;96204.72;4948953;28;19925;-66
2023/08/23 09:23:23;;;;;;;;;;;37.20;38.60;;;34.32;50.59;96196.56;4948497;28;19922;-66
2023/08/23 09:25:49;;;;;;;;;;;37.50;37.90;;;34.48;49.03;96188.53;4947153;28;19918;-67
2023/08/23 09:28:15;;;;;;;;;;;37.60;36.50;;;34.61;49.23;96199.13;4931129;28;19914;-66
2023/08/23 09:30:40;;;;;;;;;;;37.70;36.50;;;34.79;48.84;96186.03;4939955;29;19913;-68
2023/08/23 09:33:09;;;;;;;;;;;38.10;36.10;;;35.03;48.16;96181.72;4948992;28;20394;-67
2023/08/23 09:35:35;;;;;;;;;;;38.20;35.50;;;35.23;48.41;96181.53;4948855;28;20463;-67
2023/08/23 09:38:00;;;;;;;;;;;38.50;35.90;;;35.51;48.66;96181.59;4937815;28;19918;-68
2023/08/23 09:40:29;;;;;;;;;;;39.00;35.30;;;35.77;47.97;96189.38;4933889;29;19914;-68
2023/08/23 09:42:56;;;;;;;;;;;39.30;34.70;;;35.91;45.41;96172.56;4947195;28;19918;-68
2023/08/23 09:45:24;;;;;;;;;;;39.00;34.20;;;36.06;45.59;96174.53;4947868;28;19914;-66
2023/08/23 09:47:51;;;;;;;;;;;39.10;33.80;;;36.24;45.44;96172.28;4947007;28;19948;-66
2023/08/23 09:50:18;;;;;;;;;;;39.60;33.80;;;36.33;44.57;96163.91;4948210;28;19918;-67
2023/08/23 09:52:44;;;;;;;;;;;39.40;33.10;;;36.46;44.92;96166.19;4946110;28;19922;-67
2023/08/23 09:55:11;;;;;;;;;;;39.80;33.30;;;36.76;44.30;96168.47;4915699;28;19914;-68
2023/08/23 09:57:37;;;;;;;;;;;40.40;32.90;;;36.92;44.77;96177.50;4931354;29;20315;-69
2023/08/23 10:00:03;;;;;;;;;;;40.50;32.30;;;37.03;43.27;96153.03;4948875;28;20005;-67
2023/08/23 10:02:29;;;;;;;;;;;40.50;32.00;;;37.25;42.77;96152.38;4915994;29;19925;-67
2023/08/23 10:04:56;;;;;;;;;;;41.20;31.50;;;37.51;42.90;96154.47;4916019;29;19919;-67
2023/08/23 10:07:22;;;;;;;;;;;41.50;31.00;;;37.64;42.10;96152.38;4944865;28;19914;-67
2023/08/23 10:09:47;;;;;;;;;;;41.90;30.60;;;37.89;42.77;96163.88;4946154;28;19925;-67
2023/08/23 10:12:13;;;;;;;;;;;42.30;30.40;;;38.15;42.22;96155.69;4952511;28;19918;-66
2023/08/23 10:14:46;;;;;;;;;;;42.90;29.70;;;38.46;40.86;96140.94;4928090;29;20297;-69
2023/08/23 10:17:13;;;;;;;;;;;43.30;28.90;;;38.56;40.60;96131.28;4943043;28;19918;-69
2023/08/23 10:19:38;;;;;;;;;;;43.30;28.60;;;38.74;40.58;96140.63;4944413;28;20340;-69
2023/08/23 10:22:04;;;;;;;;;;;43.70;28.40;;;38.94;39.66;96124.81;4927279;28;19910;-69
2023/08/23 10:24:33;;;;;;;;;;;44.20;28.00;;;39.17;38.90;96122.00;4944764;28;20362;-68
2023/08/23 10:27:07;;;;;;;;;;;44.60;27.70;;;39.46;39.96;96129.44;4952118;28;19941;-66
2023/08/23 10:29:34;;;;;;;;;;;45.10;27.00;;;39.64;38.90;96123.38;4946372;28;20002;-70
2023/08/23 10:32:04;;;;;;;;;;;45.10;26.70;;;39.90;38.89;96116.94;4941716;28;20297;-70
2023/08/23 10:34:29;;;;;;;;;;;45.50;26.40;;;40.14;37.71;96115.63;4930548;29;19924;-67
2023/08/23 10:36:55;;;;;;;;;;;45.60;25.70;;;40.30;37.86;96114.19;4948987;28;19918;-69
2023/08/23 10:39:22;;;;;;;;;;;46.00;25.70;;;40.57;37.24;96114.81;4946378;28;19923;-70
2023/08/23 10:41:52;;;;;;;;;;;46.20;25.10;;;40.78;35.79;96107.88;4945944;28;20009;-70
2023/08/23 10:44:18;;;;;;;;;;;46.20;24.70;;;40.96;36.42;96114.28;4946144;28;19973;-70
2023/08/23 10:46:47;;;;;;;;;;;46.50;24.70;;;41.12;35.85;96106.50;4942368;28;19910;-69
2023/08/23 10:49:12;;;;;;;;;;;46.70;24.70;;;41.26;36.02;96111.31;4935452;28;19974;-70
2023/08/23 10:51:41;;;;;;;;;;;46.80;25.10;;;41.41;36.29;96115.69;4926683;29;19918;-71
2023/08/23 10:54:12;;;;;;;;;;;47.00;25.50;;;41.69;35.96;96108.75;4949648;28;20538;-69
2023/08/23 10:56:38;;;;;;;;;;;47.30;25.00;;;41.94;35.37;96101.28;4930301;29;20496;-69
2023/08/23 10:59:04;;;;;;;;;;;47.50;24.10;;;42.13;34.90;96091.88;4936418;29;19925;-70
2023/08/23 11:01:29;;;;;;;;;;;47.30;24.50;;;42.28;34.62;96093.41;4940573;28;20555;-71
2023/08/23 11:03:55;;;;;;;;;;;47.30;24.20;;;42.35;35.20;96096.19;4938108;29;19933;-70
2023/08/23 11:06:21;;;;;;;;;;;47.80;25.20;;;42.58;34.39;96084.75;4949418;28;19926;-67
2023/08/23 11:08:47;;;;;;;;;;;48.10;24.20;;;42.78;33.17;96083.13;4916462;28;19915;-69
2023/08/23 11:11:12;;;;;;;;;;;47.90;23.70;;;42.59;34.01;96080.00;4938180;28;19918;-69
2023/08/23 11:13:38;;;;;;;;;;;47.30;24.50;;;42.62;34.81;96084.75;4934318;28;19934;-68